Time;durP1;ratioP1;P1;durP2;ratioP2;P2;SDS_P1;SDS_P2;PMS_P1;PMS_P2;Temp;Humidity;BMP_temperature;BMP_pressure;BME280_temperature;BME280_humidity;BME280_pressure;Samples;Min_cycle;Max_cycle;Signal;HPM_P1;HPM_P2
2021/03/14 00:02:20;;;;;;;17.42;6.35;;;;;;;1.89;88.16;97782.88;5065234;28;20040;-64
2021/03/14 00:04:46;;;;;;;10.93;5.30;;;;;;;1.88;88.27;97781.19;5065536;28;20028;-64
2021/03/14 00:07:11;;;;;;;10.27;5.35;;;;;;;1.88;88.37;97786.31;5065429;28;20379;-64
2021/03/14 00:09:37;;;;;;;17.05;6.03;;;;;;;1.90;88.05;97789.66;5065433;28;20032;-64
2021/03/14 00:12:05;;;;;;;12.45;4.57;;;;;;;1.90;88.12;97792.22;5065297;28;20032;-64
2021/03/14 00:14:30;;;;;;;5.63;2.50;;;;;;;1.85;88.14;97806.84;5065265;28;20029;-64
2021/03/14 00:16:55;;;;;;;15.43;5.85;;;;;;;1.78;88.04;97800.09;5065041;28;20099;-64
2021/03/14 00:19:21;;;;;;;15.30;6.10;;;;;;;1.77;88.11;97795.84;5065137;28;20025;-64
2021/03/14 00:21:46;;;;;;;11.35;5.45;;;;;;;1.71;88.26;97800.19;5065122;28;20028;-63
2021/03/14 00:24:12;;;;;;;11.05;5.25;;;;;;;1.68;88.33;97801.94;5065077;28;20017;-64
2021/03/14 00:26:37;;;;;;;12.07;5.43;;;;;;;1.68;88.24;97807.91;5046990;28;20051;-64
2021/03/14 00:29:05;;;;;;;13.82;6.55;;;;;;;1.64;88.25;97802.84;5065062;28;20028;-63
2021/03/14 00:31:30;;;;;;;18.60;6.18;;;;;;;1.64;88.43;97806.28;5064752;28;20081;-65
2021/03/14 00:33:55;;;;;;;12.05;4.90;;;;;;;1.61;88.35;97807.16;5065012;28;20049;-63
2021/03/14 00:36:21;;;;;;;20.25;6.15;;;;;;;1.61;88.28;97811.44;5064790;28;20025;-63
2021/03/14 00:38:46;;;;;;;17.40;6.13;;;;;;;1.59;88.36;97820.84;5064759;28;20028;-62
2021/03/14 00:41:12;;;;;;;19.67;6.65;;;;;;;1.58;88.14;97821.72;5064373;28;20025;-65
2021/03/14 00:43:37;;;;;;;16.98;6.75;;;;;;;1.58;88.50;97824.25;5064591;28;20055;-63
2021/03/14 00:46:03;;;;;;;14.52;5.38;;;;;;;1.57;88.56;97828.53;5046770;28;20017;-63
2021/03/14 00:48:28;;;;;;;8.18;3.80;;;;;;;1.57;88.17;97822.56;5064379;28;20125;-63
2021/03/14 00:50:53;;;;;;;13.80;5.50;;;;;;;1.56;88.19;97831.97;5064639;28;20025;-63
2021/03/14 00:53:19;;;;;;;14.27;6.35;;;;;;;1.58;88.48;97826.81;5064269;28;20081;-63
2021/03/14 00:55:45;;;;;;;15.57;6.32;;;;;;;1.54;88.51;97822.59;5064527;28;20017;-63
2021/03/14 00:58:10;;;;;;;17.25;6.88;;;;;;;1.59;88.37;97831.06;5064372;28;20029;-63
2021/03/14 01:00:36;;;;;;;18.65;9.10;;;;;;;1.60;88.38;97832.75;5064439;28;20183;-63
2021/03/14 01:03:01;;;;;;;18.40;6.55;;;;;;;1.60;88.35;97845.53;5064049;28;20493;-64
2021/03/14 01:05:27;;;;;;;10.63;5.10;;;;;;;1.59;88.22;97836.19;5046488;28;20100;-64
2021/03/14 01:07:52;;;;;;;11.88;5.40;;;;;;;1.59;88.25;97848.97;5064468;28;20017;-63
2021/03/14 01:10:18;;;;;;;16.55;6.05;;;;;;;1.58;88.31;97850.66;5064323;28;20013;-64
2021/03/14 01:12:43;;;;;;;11.60;4.45;;;;;;;1.54;88.23;97848.16;5064326;28;20435;-64
2021/03/14 01:15:11;;;;;;;13.70;6.13;;;;;;;1.52;88.21;97852.47;5063974;28;20351;-64
2021/03/14 01:17:37;;;;;;;19.77;5.72;;;;;;;1.52;88.14;97855.88;5063941;28;20040;-64
2021/03/14 01:20:09;;;;;;;18.30;6.60;;;;;;;1.47;88.26;97855.94;5064065;28;20025;-64
2021/03/14 01:22:34;;;;;;;17.45;6.25;;;;;;;1.45;88.26;97855.09;5064062;28;20032;-65
2021/03/14 01:25:00;;;;;;;13.27;6.25;;;;;;;1.42;87.93;97859.41;5063806;28;20029;-65
2021/03/14 01:27:25;;;;;;;14.15;5.32;;;;;;;1.39;88.13;97865.41;5063689;28;20098;-65
2021/03/14 01:29:51;;;;;;;18.15;6.05;;;;;;;1.39;88.17;97874.78;5045962;28;20040;-65
2021/03/14 01:32:17;;;;;;;20.20;7.25;;;;;;;1.38;88.22;97880.75;5063029;28;20025;-65
2021/03/14 01:34:42;;;;;;;16.40;5.35;;;;;;;1.36;88.25;97879.06;5064090;28;20024;-65
2021/03/14 01:37:08;;;;;;;16.45;6.22;;;;;;;1.32;88.11;97879.97;5063696;28;20025;-65
2021/03/14 01:39:33;;;;;;;14.23;5.50;;;;;;;1.30;88.22;97885.97;5063718;28;20035;-65
2021/03/14 01:41:58;;;;;;;18.83;5.47;;;;;;;1.27;88.23;97883.44;5063564;28;20029;-65
2021/03/14 01:44:24;;;;;;;10.82;4.65;;;;;;;1.23;88.10;97891.16;5064350;28;20029;-65
2021/03/14 01:46:49;;;;;;;8.85;4.80;;;;;;;1.22;87.92;97897.13;5065307;28;20029;-66
2021/03/14 01:49:16;;;;;;;9.43;4.72;;;;;;;1.16;88.06;97889.53;5065497;28;20480;-66
2021/03/14 01:51:42;;;;;;;15.13;5.63;;;;;;;1.15;88.03;97897.22;5065708;28;20028;-66
2021/03/14 01:54:07;;;;;;;16.77;5.60;;;;;;;1.11;88.12;97907.47;5065638;28;20088;-66
2021/03/14 01:56:33;;;;;;;10.80;6.10;;;;;;;1.09;88.09;97905.78;5065422;28;20045;-67
2021/03/14 01:59:00;;;;;;;16.73;7.20;;;;;;;1.05;87.95;97904.13;5065101;28;20021;-67
2021/03/14 02:01:25;;;;;;;9.32;4.43;;;;;;;0.99;87.90;97913.53;5065157;28;20049;-67
2021/03/14 02:03:50;;;;;;;9.55;4.95;;;;;;;0.94;88.03;97910.19;5065489;28;20405;-67
2021/03/14 02:06:16;;;;;;;12.60;5.25;;;;;;;0.86;87.94;97907.69;5065491;28;20170;-68
2021/03/14 02:08:41;;;;;;;11.90;4.88;;;;;;;0.81;87.90;97912.03;5065468;28;20036;-68
2021/03/14 02:11:07;;;;;;;15.40;6.32;;;;;;;0.77;87.91;97919.72;5065652;28;20039;-68
2021/03/14 02:13:46;;;;;;;10.73;4.68;;;;;;;0.67;88.02;97922.34;5065503;28;20038;-67
2021/03/14 02:16:22;;;;;;;12.82;5.57;;;;;;;0.64;87.89;97922.38;5065497;28;20546;-67
2021/03/14 02:18:51;;;;;;;12.68;4.28;;;;;;;0.54;87.98;97918.22;5065356;28;20033;-67
2021/03/14 02:21:16;;;;;;;10.93;4.65;;;;;;;0.54;87.85;97930.97;5065238;28;20102;-67
2021/03/14 02:23:59;;;;;;;11.10;4.75;;;;;;;0.45;88.04;97937.84;5065296;28;20017;-66
2021/03/14 02:26:28;;;;;;;15.68;5.15;;;;;;;0.42;87.94;97942.09;5065022;28;20105;-66
2021/03/14 02:28:55;;;;;;;8.88;4.40;;;;;;;0.39;88.01;97944.69;5065227;28;20036;-66
2021/03/14 02:31:23;;;;;;;14.10;5.10;;;;;;;0.34;88.31;97953.22;5065132;28;20025;-65
2021/03/14 02:33:53;;;;;;;14.88;4.75;;;;;;;0.32;88.29;97949.84;5065173;28;20021;-65
2021/03/14 02:36:19;;;;;;;12.70;5.20;;;;;;;0.30;88.13;97966.88;5065144;28;20024;-65
2021/03/14 02:38:47;;;;;;;9.32;4.47;;;;;;;0.28;88.10;97965.19;5065131;28;20084;-65
2021/03/14 02:41:14;;;;;;;11.52;4.07;;;;;;;0.19;88.38;97961.81;5065226;28;20033;-65
2021/03/14 02:43:40;;;;;;;13.43;4.15;;;;;;;0.21;88.33;97970.31;5067452;28;20025;-64
2021/03/14 02:46:06;;;;;;;7.28;3.70;;;;;;;0.20;88.34;97973.75;5068753;28;20037;-64
2021/03/14 02:48:33;;;;;;;12.20;4.70;;;;;;;0.20;88.20;97985.63;5069055;28;20032;-65
2021/03/14 02:50:59;;;;;;;14.75;5.10;;;;;;;0.15;88.37;97995.88;5068912;28;20074;-67
2021/03/14 02:53:26;;;;;;;11.75;4.47;;;;;;;0.14;88.50;97996.75;5068904;28;20021;-65
2021/03/14 02:55:54;;;;;;;13.65;4.78;;;;;;;0.13;88.35;97994.19;5068640;28;20024;-65
2021/03/14 02:58:21;;;;;;;4.50;2.92;;;;;;;0.10;88.46;97995.03;5068846;28;20055;-65
2021/03/14 03:00:47;;;;;;;8.77;4.93;;;;;;;0.12;88.20;98003.53;5050895;28;20029;-65
2021/03/14 03:03:13;;;;;;;9.05;4.45;;;;;;;0.04;88.32;98008.69;5068485;28;20086;-65
2021/03/14 03:05:39;;;;;;;8.65;4.30;;;;;;;0.09;88.37;98016.31;5068524;28;20483;-64
2021/03/14 03:08:06;;;;;;;12.90;4.88;;;;;;;0.08;88.49;98027.41;5068574;28;20032;-64
2021/03/14 03:10:44;;;;;;;15.63;4.30;;;;;;;0.08;88.49;98029.94;5068408;28;20061;-63
2021/03/14 03:13:10;;;;;;;9.75;3.97;;;;;;;0.09;88.41;98031.63;5068602;28;20013;-63
2021/03/14 03:15:37;;;;;;;14.98;4.78;;;;;;;0.05;88.39;98032.50;5068310;28;20090;-63
2021/03/14 03:18:02;;;;;;;11.70;5.65;;;;;;;0.06;88.25;98040.16;5068213;28;20028;-63
2021/03/14 03:20:28;;;;;;;9.25;4.75;;;;;;;0.09;88.32;98052.91;5068495;28;20032;-63
2021/03/14 03:22:55;;;;;;;8.63;4.10;;;;;;;0.04;88.13;98039.31;5068253;28;20028;-63
2021/03/14 03:25:22;;;;;;;6.25;2.83;;;;;;;0.07;88.16;98061.41;5050080;28;20040;-62
2021/03/14 03:27:47;;;;;;;13.35;5.53;;;;;;;0.04;88.16;98057.16;5067876;28;20044;-62
2021/03/14 03:30:16;;;;;;;8.75;4.43;;;;;;;0.03;88.36;98064.81;5068357;28;20052;-62
2021/03/14 03:32:41;;;;;;;11.35;5.03;;;;;;;0.02;88.31;98075.91;5049901;28;20020;-62
2021/03/14 03:35:09;;;;;;;7.43;3.67;;;;;;;-0.01;88.39;98076.72;5067905;28;20032;-63
2021/03/14 03:37:35;;;;;;;10.63;4.35;;;;;;;-0.01;88.40;98082.69;5068120;28;20025;-63
2021/03/14 03:40:06;;;;;;;13.05;5.10;;;;;;;-0.03;88.23;98089.50;5050327;28;20021;-63
2021/03/14 03:42:36;;;;;;;13.02;4.60;;;;;;;-0.03;88.36;98086.09;5049941;28;20036;-63
2021/03/14 03:45:04;;;;;;;9.85;4.72;;;;;;;-0.05;88.55;98100.56;5067783;28;20040;-63
2021/03/14 03:47:31;;;;;;;10.52;4.88;;;;;;;-0.06;88.33;98101.41;5049567;28;20020;-62
2021/03/14 03:49:57;;;;;;;4.70;2.53;;;;;;;-0.07;88.46;98092.06;5049771;28;20021;-62
2021/03/14 03:52:24;;;;;;;12.82;4.82;;;;;;;-0.10;88.33;98105.69;5067856;28;20070;-62
2021/03/14 03:54:51;;;;;;;17.00;6.00;;;;;;;-0.14;88.35;98098.88;5066694;28;20473;-62
2021/03/14 03:57:18;;;;;;;10.55;5.03;;;;;;;-0.15;88.38;98107.38;5067665;28;20028;-63
2021/03/14 03:59:45;;;;;;;15.05;4.90;;;;;;;-0.18;88.39;98109.94;5067685;28;20017;-63
2021/03/14 04:02:11;;;;;;;12.40;5.25;;;;;;;-0.19;88.38;98114.19;5049179;28;20029;-63
2021/03/14 04:04:40;;;;;;;11.45;5.15;;;;;;;-0.19;88.55;98118.47;5067405;28;20048;-64
2021/03/14 04:07:06;;;;;;;10.07;4.43;;;;;;;-0.18;88.48;98115.03;5067441;28;20033;-63
2021/03/14 04:09:31;;;;;;;13.00;5.68;;;;;;;-0.16;88.42;98128.66;5067290;28;20035;-64
2021/03/14 04:11:58;;;;;;;9.43;4.68;;;;;;;-0.18;88.52;98122.69;5067337;28;20025;-64
2021/03/14 04:14:25;;;;;;;11.93;5.63;;;;;;;-0.16;88.58;98133.75;5067419;28;20025;-64
2021/03/14 04:16:51;;;;;;;12.05;5.15;;;;;;;-0.18;88.47;98133.75;5048789;28;20044;-64
2021/03/14 04:19:20;;;;;;;11.32;5.28;;;;;;;-0.17;88.40;98138.00;5067120;28;20025;-64
2021/03/14 04:21:48;;;;;;;11.27;4.75;;;;;;;-0.19;88.51;98139.69;5067244;28;20080;-64
2021/03/14 04:24:15;;;;;;;12.45;4.35;;;;;;;-0.19;88.51;98143.97;5067252;28;20029;-64
2021/03/14 04:26:43;;;;;;;14.63;4.68;;;;;;;-0.17;88.62;98147.34;5066693;28;20059;-64
2021/03/14 04:29:10;;;;;;;9.00;4.45;;;;;;;-0.18;88.59;98150.75;5066997;28;20029;-64
2021/03/14 04:31:43;;;;;;;10.63;4.75;;;;;;;-0.17;88.65;98152.44;5066703;28;20024;-64
2021/03/14 04:34:10;;;;;;;16.27;5.55;;;;;;;-0.20;88.55;98158.41;5066995;28;20025;-64
2021/03/14 04:36:37;;;;;;;14.90;5.55;;;;;;;-0.21;88.62;98155.84;5066737;28;20067;-64
2021/03/14 04:39:03;;;;;;;16.38;5.20;;;;;;;-0.19;88.58;98162.63;5066794;28;20041;-64
2021/03/14 04:41:31;;;;;;;16.73;5.43;;;;;;;-0.20;88.71;98170.28;5048417;28;20029;-64
2021/03/14 04:43:56;;;;;;;11.98;5.35;;;;;;;-0.21;88.57;98172.03;5049266;28;20029;-63
2021/03/14 04:46:22;;;;;;;14.50;5.60;;;;;;;-0.28;88.59;98168.63;5066294;28;20223;-63
2021/03/14 04:48:47;;;;;;;15.95;5.75;;;;;;;-0.23;88.55;98173.72;5066370;28;20037;-63
2021/03/14 04:51:14;;;;;;;12.23;5.88;;;;;;;-0.21;88.59;98173.72;5066652;28;20033;-63
2021/03/14 04:53:41;;;;;;;12.90;5.60;;;;;;;-0.23;88.52;98183.06;5048638;28;20389;-63
2021/03/14 04:56:07;;;;;;;15.82;5.95;;;;;;;-0.23;88.40;98188.16;5066433;28;20108;-63
2021/03/14 04:58:33;;;;;;;10.70;4.47;;;;;;;-0.26;88.39;98187.28;5066370;28;20025;-64
2021/03/14 05:01:02;;;;;;;12.48;5.18;;;;;;;-0.27;88.43;98198.34;5066244;28;20021;-64
2021/03/14 05:03:29;;;;;;;11.77;5.78;;;;;;;-0.28;88.49;98201.75;5066079;28;20063;-63
2021/03/14 05:05:55;;;;;;;16.98;5.82;;;;;;;-0.28;88.43;98198.34;5066321;28;20031;-63
2021/03/14 05:08:23;;;;;;;12.38;5.55;;;;;;;-0.32;88.51;98197.50;5066366;28;20025;-63
2021/03/14 05:10:50;;;;;;;14.32;5.47;;;;;;;-0.29;88.45;98206.88;5066160;28;20082;-63
2021/03/14 05:13:16;;;;;;;15.10;5.70;;;;;;;-0.32;88.40;98214.50;5066220;28;20039;-63
2021/03/14 05:15:42;;;;;;;15.20;6.10;;;;;;;-0.38;88.49;98212.78;5065725;28;20090;-63
2021/03/14 05:18:10;;;;;;;12.55;5.55;;;;;;;-0.36;88.58;98218.75;5065828;28;20477;-64
2021/03/14 05:20:37;;;;;;;12.40;5.30;;;;;;;-0.34;88.52;98227.25;5066013;28;20028;-63
2021/03/14 05:23:03;;;;;;;15.18;4.93;;;;;;;-0.31;88.67;98227.25;5047997;28;20055;-63
2021/03/14 05:25:28;;;;;;;9.80;4.85;;;;;;;-0.27;88.74;98231.50;5065869;28;20028;-64
2021/03/14 05:27:54;;;;;;;18.52;5.82;;;;;;;-0.22;88.80;98243.44;5065685;28;20421;-64
2021/03/14 05:30:26;;;;;;;12.38;5.75;;;;;;;-0.18;88.85;98245.97;5065609;28;20027;-64
2021/03/14 05:32:55;;;;;;;10.82;5.78;;;;;;;-0.13;88.59;98253.63;5065791;28;20075;-64
2021/03/14 05:35:22;;;;;;;14.27;5.18;;;;;;;-0.11;88.69;98262.09;5048173;28;20033;-64
2021/03/14 05:37:48;;;;;;;13.10;6.13;;;;;;;-0.11;88.57;98271.47;5065746;28;20071;-65
2021/03/14 05:40:15;;;;;;;14.63;5.57;;;;;;;-0.07;88.77;98283.38;5065802;28;20082;-65
2021/03/14 05:42:41;;;;;;;11.48;5.93;;;;;;;-0.13;88.70;98285.06;5065439;28;20036;-64
2021/03/14 05:45:09;;;;;;;16.38;5.60;;;;;;;-0.09;88.57;98285.94;5065486;28;20028;-64
2021/03/14 05:47:36;;;;;;;15.95;5.05;;;;;;;-0.07;88.65;98289.34;5065540;28;20025;-63
2021/03/14 05:50:03;;;;;;;17.23;7.20;;;;;;;-0.03;88.64;98301.22;5065590;28;20025;-64
2021/03/14 05:52:28;;;;;;;10.85;5.97;;;;;;;0.03;88.82;98295.31;5065376;28;20135;-65
2021/03/14 05:54:54;;;;;;;12.68;5.28;;;;;;;0.19;88.85;98297.84;5047515;28;20025;-64
2021/03/14 05:57:20;;;;;;;15.55;4.78;;;;;;;0.30;88.94;98293.59;5065326;28;20366;-63
2021/03/14 05:59:50;;;;;;;12.93;5.32;;;;;;;0.47;88.96;98293.56;5065314;28;20040;-62
2021/03/14 06:02:20;;;;;;;13.43;5.28;;;;;;;0.62;89.13;98304.59;5065023;28;20028;-68
2021/03/14 06:04:46;;;;;;;11.00;5.10;;;;;;;0.70;88.91;98302.03;5065516;28;20021;-67
2021/03/14 06:07:13;;;;;;;11.73;4.57;;;;;;;0.73;89.05;98309.69;5065296;28;20029;-68
2021/03/14 06:09:39;;;;;;;9.85;4.57;;;;;;;0.67;88.73;98313.09;5065293;28;20040;-68
2021/03/14 06:12:11;;;;;;;12.70;4.20;;;;;;;0.65;88.37;98312.25;5065606;28;20450;-67
2021/03/14 06:14:37;;;;;;;;;;;;;;;0.63;88.24;98318.22;5065965;28;20534;-67
2021/03/14 06:17:02;;;;;;;11.13;4.43;;;;;;;0.55;88.24;98313.97;5064660;28;19948;-67
2021/03/14 06:19:28;;;;;;;11.27;4.07;;;;;;;0.54;88.27;98334.41;5069165;28;20032;-67
2021/03/14 06:22:23;;;;;;;11.27;4.28;;;;;;;0.53;88.50;98333.53;5069226;28;20052;-67
2021/03/14 06:24:50;;;;;;;11.00;4.35;;;;;;;0.60;88.62;98327.59;5069367;28;20025;-68
2021/03/14 06:27:38;;;;;;;10.88;4.50;;;;;;;0.60;88.59;98342.06;5069254;28;20045;-68
2021/03/14 06:30:31;;;;;;;9.80;4.53;;;;;;;0.60;88.56;98342.91;5069337;28;20031;-67
2021/03/14 06:33:13;;;;;;;13.00;4.28;;;;;;;0.63;88.60;98349.72;5069016;28;20084;-69
2021/03/14 06:35:50;;;;;;;8.75;4.05;;;;;;;0.80;88.98;98357.34;5068979;28;20025;-69
2021/03/14 06:38:36;;;;;;;8.60;3.63;;;;;;;1.10;89.09;98363.22;5069261;28;20024;-69
2021/03/14 06:41:01;;;;;;;7.30;3.58;;;;;;;1.29;89.34;98359.78;5068423;28;20041;-67
2021/03/14 06:43:30;;;;;;;7.43;3.35;;;;;;;1.43;89.23;98358.00;5069123;28;20048;-68
2021/03/14 06:45:56;;;;;;;8.60;3.05;;;;;;;1.43;89.04;98363.13;5068814;28;20085;-67
2021/03/14 06:48:25;;;;;;;9.70;3.90;;;;;;;1.44;88.91;98369.94;5068478;28;20093;-67
2021/03/14 06:50:51;;;;;;;11.20;3.95;;;;;;;1.55;89.00;98376.72;5068981;28;20112;-66
2021/03/14 06:53:19;;;;;;;5.57;2.95;;;;;;;1.70;89.09;98386.88;5068589;28;20017;-67
2021/03/14 06:55:47;;;;;;;7.07;3.28;;;;;;;1.83;89.06;98392.78;5068961;28;20051;-66
2021/03/14 06:58:24;;;;;;;5.40;3.35;;;;;;;1.95;88.93;98396.13;5068746;28;20444;-66
2021/03/14 07:01:16;;;;;;;6.30;2.70;;;;;;;1.97;88.73;98402.06;5068772;28;20021;-66
2021/03/14 07:03:48;;;;;;;5.80;3.35;;;;;;;1.88;88.25;98394.47;5050171;28;20029;-67
2021/03/14 07:06:19;;;;;;;8.88;3.63;;;;;;;1.90;88.14;98397.88;5068115;28;20369;-67
2021/03/14 07:08:48;;;;;;;10.75;3.28;;;;;;;1.90;88.04;98416.59;5068374;28;20069;-66
2021/03/14 07:11:32;;;;;;;7.85;3.15;;;;;;;1.83;87.80;98417.50;5068372;28;20358;-68
2021/03/14 07:13:58;;;;;;;10.38;3.50;;;;;;;1.88;87.98;98420.03;5050512;28;20055;-66
2021/03/14 07:16:39;;;;;;;8.65;2.88;;;;;;;1.76;87.75;98416.69;5068065;28;20029;-67
2021/03/14 07:19:07;;;;;;;5.05;2.85;;;;;;;1.81;87.47;98434.56;5068093;28;20029;-67
2021/03/14 07:21:32;;;;;;;4.32;2.75;;;;;;;1.91;87.68;98433.69;5068135;28;20088;-66
2021/03/14 07:23:58;;;;;;;6.82;2.72;;;;;;;2.33;88.57;98435.16;5068343;28;20032;-67
2021/03/14 07:26:46;;;;;;;4.68;2.30;;;;;;;3.49;88.96;98434.09;5067895;28;20056;-66
2021/03/14 07:29:12;;;;;;;3.85;1.70;;;;;;;4.76;88.22;98448.66;5066548;28;20044;-66
2021/03/14 07:31:38;;;;;;;3.78;1.92;;;;;;;5.61;86.98;98442.88;5067879;28;20033;-66
2021/03/14 07:34:05;;;;;;;4.00;2.20;;;;;;;6.36;85.90;98449.91;5067725;28;20028;-64
2021/03/14 07:36:30;;;;;;;6.63;2.00;;;;;;;7.29;86.91;98456.25;5067917;28;20035;-64
2021/03/14 07:38:57;;;;;;;4.80;2.20;;;;;;;7.73;86.03;98449.94;5067544;28;20029;-65
2021/03/14 07:41:28;;;;;;;5.47;2.10;;;;;;;8.22;86.98;98473.50;5065701;28;20044;-65
2021/03/14 07:43:53;;;;;;;2.95;1.70;;;;;;;8.58;82.88;98469.84;5047584;28;20021;-63
2021/03/14 07:46:22;;;;;;;4.47;1.92;;;;;;;9.07;80.18;98479.53;5065476;28;20416;-63
2021/03/14 07:48:50;;;;;;;6.93;3.05;;;;;;;9.42;80.69;98480.03;5065145;28;20072;-63
2021/03/14 07:51:17;;;;;;;5.22;2.50;;;;;;;9.85;80.41;98488.94;5065624;28;20025;-62
2021/03/14 07:53:44;;;;;;;3.97;2.17;;;;;;;10.47;83.82;98499.63;5065587;28;20025;-62
2021/03/14 07:56:10;;;;;;;5.38;2.72;;;;;;;10.84;83.63;98494.75;5065403;28;20143;-63
2021/03/14 07:58:36;;;;;;;3.17;1.98;;;;;;;10.80;78.78;98505.31;5065554;28;20036;-63
2021/03/14 08:01:21;;;;;;;2.90;2.33;;;;;;;10.94;78.19;98503.00;5065437;28;20052;-63
2021/03/14 08:03:46;;;;;;;3.58;1.92;;;;;;;11.29;77.44;98505.06;5065127;28;20021;-65
2021/03/14 08:06:12;;;;;;;5.88;2.10;;;;;;;11.72;80.28;98510.16;5065239;28;20385;-65
2021/03/14 08:08:37;;;;;;;4.32;2.33;;;;;;;12.03;80.30;98508.78;5065200;28;20028;-63
2021/03/14 08:11:02;;;;;;;5.53;2.20;;;;;;;12.29;79.92;98510.28;5065037;28;20017;-64
2021/03/14 08:13:31;;;;;;;3.38;2.08;;;;;;;12.31;75.20;98516.28;5065321;28;20024;-64
2021/03/14 08:16:13;;;;;;;5.45;2.65;;;;;;;12.26;73.48;98512.13;5065259;28;20461;-63
2021/03/14 08:18:38;;;;;;;3.70;1.83;;;;;;;12.37;71.89;98522.03;5065073;28;20021;-64
2021/03/14 08:21:05;;;;;;;3.17;2.05;;;;;;;12.30;68.81;98515.41;5065272;28;20039;-64
2021/03/14 08:23:45;;;;;;;3.88;2.15;;;;;;;12.11;69.40;98516.28;5064884;28;20492;-64
2021/03/14 08:26:16;;;;;;;6.05;2.13;;;;;;;12.07;66.79;98516.44;5064575;28;20021;-64
2021/03/14 08:28:52;;;;;;;5.65;2.53;;;;;;;12.17;70.41;98517.75;5064821;28;20646;-62
2021/03/14 08:31:46;;;;;;;3.72;1.98;;;;;;;12.19;64.75;98523.72;5065258;28;20112;-67
2021/03/14 08:34:18;;;;;;;5.63;2.63;;;;;;;12.17;65.10;98529.91;5046714;28;20021;-63
2021/03/14 08:36:44;;;;;;;4.22;1.73;;;;;;;11.88;64.25;98535.47;5064736;28;20037;-63
2021/03/14 08:39:21;;;;;;;6.65;2.03;;;;;;;11.68;64.39;98534.59;5064911;28;20024;-63
2021/03/14 08:41:53;;;;;;;3.05;1.80;;;;;;;11.63;63.21;98541.72;5046136;28;20124;-63
2021/03/14 08:44:46;;;;;;;3.95;2.05;;;;;;;11.67;61.53;98550.25;5064627;28;20044;-65
2021/03/14 08:47:15;;;;;;;3.53;2.03;;;;;;;11.76;61.52;98560.25;5064540;28;20021;-63
2021/03/14 08:49:45;;;;;;;5.82;2.30;;;;;;;11.87;63.86;98558.03;5064622;28;20095;-64
2021/03/14 08:52:11;;;;;;;6.32;2.28;;;;;;;11.97;61.13;98563.69;5064661;28;20051;-65
2021/03/14 08:54:50;;;;;;;3.92;2.40;;;;;;;12.12;64.99;98567.38;5064795;28;20017;-64
2021/03/14 08:57:17;;;;;;;4.75;2.10;;;;;;;12.04;64.24;98566.84;5064608;28;20025;-63
2021/03/14 08:59:56;;;;;;;3.63;1.75;;;;;;;11.86;62.99;98566.75;5064500;28;20032;-63
2021/03/14 09:02:22;;;;;;;4.00;1.73;;;;;;;11.98;66.19;98574.94;5063713;28;20526;-61
2021/03/14 09:04:48;;;;;;;4.70;2.38;;;;;;;11.89;64.47;98578.75;5064320;28;20028;-61
2021/03/14 09:07:14;;;;;;;3.60;1.77;;;;;;;11.85;64.02;98579.81;5064077;28;20071;-64
2021/03/14 09:09:39;;;;;;;4.53;2.30;;;;;;;11.83;63.09;98582.47;5064099;28;20029;-66
2021/03/14 09:12:17;;;;;;;6.57;2.38;;;;;;;11.81;61.69;98584.28;5064225;28;20025;-66
2021/03/14 09:14:49;;;;;;;6.65;2.00;;;;;;;12.10;62.04;98591.78;5064228;28;20025;-67
2021/03/14 09:17:14;;;;;;;;;;;;;;;12.24;60.01;98593.75;5064342;28;20071;-66
2021/03/14 09:19:50;;;;;;;7.18;2.28;;;;;;;12.12;59.76;98595.97;5064315;28;20253;-65
2021/03/14 09:22:23;;;;;;;5.38;1.83;;;;;;;12.03;60.31;98601.56;5064245;28;20448;-68
2021/03/14 09:24:52;;;;;;;3.17;1.70;;;;;;;12.17;60.91;98597.56;5046100;28;20035;-66
2021/03/14 09:27:19;;;;;;;4.10;1.77;;;;;;;12.44;60.28;98610.25;5063719;28;20108;-64
2021/03/14 09:29:53;;;;;;;4.85;1.83;;;;;;;12.89;62.97;98601.22;5063826;28;20025;-64
2021/03/14 09:32:41;;;;;;;4.55;1.90;;;;;;;13.29;59.69;98608.03;5063592;28;20021;-64
2021/03/14 09:35:19;;;;;;;5.13;2.17;;;;;;;13.18;57.42;98605.94;5063901;28;20020;-65
2021/03/14 09:37:48;;;;;;;7.30;2.95;;;;;;;13.02;58.21;98600.63;5063845;28;20017;-69
2021/03/14 09:40:14;;;;;;;4.57;1.58;;;;;;;13.01;59.56;98605.00;5063924;28;20025;-63
2021/03/14 09:42:44;;;;;;;3.10;1.50;;;;;;;12.85;58.66;98606.63;5063634;28;20162;-72
2021/03/14 09:45:16;;;;;;;4.13;2.00;;;;;;;12.74;59.74;98614.97;5063830;28;20024;-66
2021/03/14 09:48:00;;;;;;;;;;;;;;;12.58;54.26;98613.06;5063950;28;20097;-70
2021/03/14 09:50:26;;;;;;;6.78;1.70;;;;;;;12.74;58.91;98610.59;5045694;28;19908;-65
2021/03/14 09:52:52;;;;;;;2.28;1.30;;;;;;;12.76;57.32;98621.78;5063065;28;20505;-75
2021/03/14 09:55:30;;;;;;;12.15;1.80;;;;;;;12.59;56.97;98614.75;5063683;28;20025;-67
2021/03/14 09:57:56;;;;;;;3.60;1.35;;;;;;;12.59;57.75;98614.75;5063709;28;20100;-65
2021/03/14 10:00:23;;;;;;;2.70;1.50;;;;;;;12.75;58.17;98619.25;5063597;28;20124;-65
2021/03/14 10:02:49;;;;;;;2.60;1.67;;;;;;;13.10;56.08;98621.94;5063149;28;20097;-64
2021/03/14 10:05:15;;;;;;;2.15;1.17;;;;;;;13.27;55.53;98628.13;5063585;28;20055;-65
2021/03/14 10:07:41;;;;;;;3.05;1.40;;;;;;;13.59;56.86;98627.50;5063796;28;20025;-65
2021/03/14 10:10:11;;;;;;;4.18;1.70;;;;;;;14.02;54.41;98629.69;5063389;28;20025;-65
2021/03/14 10:12:38;;;;;;;2.65;1.00;;;;;;;14.40;54.68;98626.00;5063393;28;20021;-69
2021/03/14 10:15:05;;;;;;;2.00;1.40;;;;;;;14.81;52.31;98629.94;5063403;28;20028;-68
2021/03/14 10:17:31;;;;;;;4.10;1.30;;;;;;;15.26;53.14;98628.41;5062907;28;20025;-69
2021/03/14 10:19:57;;;;;;;5.28;1.58;;;;;;;15.74;50.73;98623.91;5045116;28;20032;-69
2021/03/14 10:23:07;;;;;;;2.92;1.13;;;;;;;15.98;48.80;98638.25;5063264;28;20031;-68
2021/03/14 10:25:36;;;;;;;5.82;1.65;;;;;;;15.92;47.71;98649.06;5050657;28;20025;-68
2021/03/14 10:28:34;;;;;;;2.72;1.13;;;;;;;15.96;46.92;98659.25;5063379;28;20041;-68
2021/03/14 10:31:03;;;;;;;3.80;1.42;;;;;;;15.69;46.17;98656.47;5063252;28;20025;-68
2021/03/14 10:33:34;;;;;;;4.28;1.92;;;;;;;15.04;48.86;98656.59;5062930;28;20025;-67
2021/03/14 10:36:02;;;;;;;4.50;1.80;;;;;;;14.76;48.54;98663.28;5045346;28;20028;-66
2021/03/14 10:38:28;;;;;;;4.50;1.55;;;;;;;14.52;49.15;98660.22;5063473;28;20032;-67
2021/03/14 10:41:15;;;;;;;4.13;1.80;;;;;;;14.68;48.38;98663.69;5063058;28;20080;-67
2021/03/14 10:43:55;;;;;;;5.43;1.70;;;;;;;15.00;48.46;98657.66;5063282;28;20032;-68
2021/03/14 10:46:38;;;;;;;6.70;1.70;;;;;;;15.07;46.96;98659.03;5063315;28;20025;-68
2021/03/14 10:49:08;;;;;;;4.70;1.50;;;;;;;14.78;46.55;98669.28;5063210;28;20032;-67
2021/03/14 10:51:35;;;;;;;6.75;1.80;;;;;;;14.52;47.86;98671.50;5063272;28;20024;-68
2021/03/14 10:54:12;;;;;;;4.88;1.50;;;;;;;14.15;49.00;98674.28;5063378;28;20036;-67
2021/03/14 10:56:58;;;;;;;3.92;1.50;;;;;;;14.33;49.66;98672.47;5062789;28;20031;-65
2021/03/14 10:59:31;;;;;;;5.43;1.70;;;;;;;14.87;48.11;98668.78;5062283;28;20044;-64
2021/03/14 11:02:14;;;;;;;5.72;1.75;;;;;;;15.09;45.72;98665.03;5062784;28;20035;-70
2021/03/14 11:04:40;;;;;;;7.82;1.77;;;;;;;15.53;45.48;98677.47;5065219;28;20029;-65
2021/03/14 11:07:28;;;;;;;5.93;1.90;;;;;;;15.79;44.57;98673.34;5066524;28;20084;-64
2021/03/14 11:10:10;;;;;;;5.30;2.13;;;;;;;15.86;44.63;98671.22;5066494;28;20376;-64
2021/03/14 11:12:40;;;;;;;6.13;2.20;;;;;;;16.13;44.51;98673.16;5066324;28;20027;-64
2021/03/14 11:15:07;;;;;;;5.50;1.70;;;;;;;16.48;44.11;98674.59;5066468;28;20033;-64
2021/03/14 11:17:35;;;;;;;11.20;2.58;;;;;;;16.85;43.74;98677.53;5065834;28;20024;-64
2021/03/14 11:20:03;;;;;;;6.38;2.25;;;;;;;17.29;41.62;98674.00;5066324;28;20043;-64
2021/03/14 11:22:28;;;;;;;11.10;3.45;;;;;;;17.03;43.54;98672.06;5066137;28;20044;-66
2021/03/14 11:24:54;;;;;;;6.40;2.40;;;;;;;17.24;43.70;98673.47;5066106;28;20461;-65
2021/03/14 11:27:19;;;;;;;6.63;2.10;;;;;;;17.16;43.09;98679.19;5065783;28;20047;-66
2021/03/14 11:29:45;;;;;;;5.45;2.13;;;;;;;17.25;42.11;98675.16;5066055;28;20021;-66
2021/03/14 11:32:13;;;;;;;11.05;2.40;;;;;;;17.25;40.98;98675.16;5065861;28;20207;-66
2021/03/14 11:34:41;;;;;;;8.30;2.08;;;;;;;17.20;39.55;98683.31;5066045;28;20029;-66
2021/03/14 11:37:07;;;;;;;8.63;1.95;;;;;;;16.16;38.13;98683.44;5065773;28;20029;-65
2021/03/14 11:39:34;;;;;;;7.47;2.35;;;;;;;14.45;44.95;98691.03;5065758;28;20041;-65
2021/03/14 11:42:00;;;;;;;10.18;2.65;;;;;;;13.06;46.16;98685.56;5065625;28;20056;-65
2021/03/14 11:44:25;;;;;;;10.30;2.85;;;;;;;12.09;47.50;98694.97;5065976;28;20025;-65